Novo Brasil, Brazil
Current Conditions -  °F | °C
As of 11:00 PM on Wednesday 22 Oct 2014 (Local Time) from SBGO Reporting Station
Thunderstorm Thunderstorm  
Wind Chill: 79°   Ceiling: 8000
Heat Index: 80°   Visibility: 6mi
Dew Point: 61°   Wind: 7mph
Humidity: 54%   Direction: 50°NE
Pressure: NA   Gusts: NA
Location:  16.03°S, 50.71°W
Report Text: SBGO 230100Z 05006KT 9999 VCTS FEW040CB BKN080 OVC100 26/16 Q1018
Loading
Personal Weather Stations






























Interactive Weather Map
Tropical Storm Tracking
New forecast layout! Learn more

10-Day Weather Forecast

Advertisements
Track Severe Weather on mobile